createdAt,value
2022-09-14T00:01:47.258Z,8.25
2022-09-14T00:04:18.471Z,7.88
2022-09-14T00:06:48.588Z,6.57
2022-09-14T00:09:21.271Z,5.68
2022-09-14T00:11:50.730Z,6.22
2022-09-14T00:14:21.034Z,6.18
2022-09-14T00:16:51.104Z,5.03
2022-09-14T00:19:22.355Z,6.30
2022-09-14T00:21:53.594Z,5.85
2022-09-14T00:24:24.837Z,5.25
2022-09-14T00:26:53.853Z,4.68
2022-09-14T00:29:24.217Z,6.30
2022-09-14T00:31:53.669Z,6.25
2022-09-14T00:34:22.628Z,4.25
2022-09-14T00:36:53.047Z,4.40
2022-09-14T00:39:24.928Z,5.50
2022-09-14T00:41:54.264Z,6.70
2022-09-14T00:45:08.691Z,6.18
2022-09-14T00:47:37.674Z,3.72
2022-09-14T00:50:07.906Z,4.97
2022-09-14T00:52:40.014Z,5.00
2022-09-14T00:55:13.809Z,5.82
2022-09-14T00:57:45.480Z,5.65
2022-09-14T01:00:17.868Z,4.47
2022-09-14T01:02:47.039Z,4.65
2022-09-14T01:05:17.350Z,3.92
2022-09-14T01:08:01.674Z,3.92
2022-09-14T01:10:45.556Z,4.93
2022-09-14T01:13:29.043Z,3.60
2022-09-14T01:16:08.681Z,3.95
2022-09-14T01:18:39.943Z,3.83
2022-09-14T01:21:12.621Z,4.10
2022-09-14T01:23:49.090Z,4.18
2022-09-14T01:26:43.101Z,3.40
2022-09-14T01:29:17.840Z,4.10
2022-09-14T01:31:52.236Z,3.25
2022-09-14T01:34:29.591Z,4.40
2022-09-14T01:37:03.794Z,3.10
2022-09-14T01:39:35.443Z,3.92
2022-09-14T01:42:05.516Z,3.22
2022-09-14T01:44:39.194Z,4.93
2022-09-14T01:47:12.705Z,3.97
2022-09-14T01:49:46.291Z,4.25
2022-09-14T01:52:20.123Z,3.53
2022-09-14T01:54:55.055Z,2.47
2022-09-14T01:57:28.038Z,4.13
2022-09-14T02:00:02.935Z,3.25
2022-09-14T02:02:38.927Z,2.50
2022-09-14T02:05:11.769Z,4.70
2022-09-14T02:07:41.097Z,3.30
2022-09-14T02:10:13.625Z,3.00
2022-09-14T02:12:43.999Z,4.20
2022-09-14T02:15:16.226Z,2.70
2022-09-14T02:17:45.254Z,2.70
2022-09-14T02:20:21.914Z,2.55
2022-09-14T02:22:52.478Z,4.75
2022-09-14T02:25:22.093Z,3.88
2022-09-14T02:27:51.717Z,3.88
2022-09-14T02:30:22.128Z,2.75
2022-09-14T02:33:03.770Z,4.07
2022-09-14T02:35:39.559Z,3.22
2022-09-14T02:38:19.516Z,2.72
2022-09-14T02:40:54.736Z,4.45
2022-09-14T02:46:06.062Z,2.72
2022-09-14T02:48:41.796Z,2.50
2022-09-14T02:51:17.782Z,2.88
2022-09-14T02:53:53.315Z,4.22
2022-09-14T02:56:22.972Z,3.50
2022-09-14T02:58:51.884Z,3.63
2022-09-14T03:01:23.865Z,2.42
2022-09-14T03:03:52.826Z,2.97
2022-09-14T03:06:22.037Z,2.67
2022-09-14T03:08:51.435Z,2.97
2022-09-14T03:11:20.738Z,4.20
2022-09-14T03:13:49.687Z,2.85
2022-09-14T03:16:19.815Z,4.25
2022-09-14T03:18:51.028Z,3.10
2022-09-14T03:21:20.022Z,3.45
2022-09-14T03:23:52.450Z,5.80
2022-09-14T03:26:23.640Z,5.95
2022-09-14T03:28:53.390Z,4.97
2022-09-14T03:31:22.967Z,4.65
2022-09-14T03:33:56.633Z,5.45
2022-09-14T03:36:27.109Z,5.18
2022-09-14T03:38:58.713Z,4.97
2022-09-14T03:41:28.012Z,4.30
2022-09-14T03:43:56.920Z,4.68
2022-09-14T03:46:26.724Z,6.45
2022-09-14T03:48:57.520Z,6.88
2022-09-14T03:51:26.497Z,4.10
2022-09-14T03:53:55.368Z,6.30
2022-09-14T03:56:24.564Z,6.95
2022-09-14T03:58:53.647Z,4.38
2022-09-14T04:01:23.948Z,6.43
2022-09-14T04:03:53.149Z,6.03
2022-09-14T04:06:23.494Z,6.10
2022-09-14T04:08:52.410Z,6.10
2022-09-14T04:11:23.650Z,6.40
2022-09-14T04:13:57.098Z,6.38
2022-09-14T04:16:26.154Z,5.10
2022-09-14T04:18:55.129Z,5.28
2022-09-14T04:21:27.002Z,5.50
2022-09-14T04:26:47.503Z,4.72
2022-09-14T04:29:16.684Z,4.80
2022-09-14T04:31:45.647Z,6.03
2022-09-14T04:34:14.926Z,5.82
2022-09-14T04:36:45.250Z,5.88
2022-09-14T04:39:15.331Z,5.63
2022-09-14T04:41:44.345Z,5.00
2022-09-14T04:44:13.903Z,6.60
2022-09-14T04:46:46.631Z,7.75
2022-09-14T04:49:18.766Z,6.35
2022-09-14T04:51:49.322Z,6.45
2022-09-14T04:54:19.458Z,4.45
2022-09-14T04:56:48.467Z,4.95
2022-09-14T04:59:17.520Z,5.18
2022-09-14T05:01:48.679Z,7.30
2022-09-14T05:04:18.075Z,4.45
2022-09-14T05:06:50.251Z,5.90
2022-09-14T05:09:20.326Z,5.75
2022-09-14T05:11:51.886Z,8.23
2022-09-14T05:14:21.083Z,6.65
2022-09-14T05:16:50.191Z,5.60
2022-09-14T05:19:19.751Z,4.72
2022-09-14T05:21:50.033Z,6.07
2022-09-14T05:24:20.628Z,6.22
2022-09-14T05:26:56.040Z,7.43
2022-09-14T05:29:29.921Z,9.23
2022-09-14T05:31:59.075Z,5.60
2022-09-14T05:34:28.152Z,6.32
2022-09-14T05:36:58.680Z,6.45
2022-09-14T05:39:27.672Z,7.10
2022-09-14T05:41:56.543Z,5.13
2022-09-14T05:44:25.533Z,4.97
2022-09-14T05:46:54.633Z,6.15
2022-09-14T05:49:25.983Z,8.80
2022-09-14T05:51:55.265Z,5.68
2022-09-14T05:54:25.513Z,5.13
2022-09-14T05:56:54.549Z,4.13
2022-09-14T05:59:23.579Z,7.80
2022-09-14T06:01:53.171Z,8.13
2022-09-14T06:04:22.386Z,6.05
2022-09-14T06:07:14.596Z,8.98
2022-09-14T06:09:42.732Z,7.25
2022-09-14T06:12:11.797Z,4.47
2022-09-14T06:14:40.882Z,57.40
2022-09-14T06:17:09.879Z,16.83
2022-09-14T06:19:38.839Z,11.02
2022-09-14T06:22:07.791Z,5.10
2022-09-14T06:24:37.478Z,8.35
2022-09-14T06:27:09.102Z,4.97
2022-09-14T06:29:38.028Z,6.78
2022-09-14T06:32:07.444Z,7.65
2022-09-14T06:34:36.314Z,17.30
2022-09-14T06:37:05.317Z,13.95
2022-09-14T06:39:34.437Z,6.57
2022-09-14T06:42:03.608Z,6.68
2022-09-14T06:44:33.986Z,5.15
2022-09-14T06:47:02.898Z,5.82
2022-09-14T06:49:31.860Z,11.38
2022-09-14T06:52:01.048Z,4.43
2022-09-14T06:54:30.605Z,6.10
2022-09-14T06:56:59.610Z,12.85
2022-09-14T06:59:28.595Z,7.15
2022-09-14T07:01:59.261Z,6.20
2022-09-14T07:04:28.305Z,3.80
2022-09-14T07:06:57.223Z,4.97
2022-09-14T07:09:26.199Z,16.63
2022-09-14T07:11:57.030Z,10.07
2022-09-14T07:14:31.601Z,7.80
2022-09-14T07:17:02.605Z,7.47
2022-09-14T07:19:32.262Z,10.18
2022-09-14T07:22:04.985Z,6.38
2022-09-14T07:24:34.002Z,4.88
2022-09-14T07:27:04.492Z,6.63
2022-09-14T07:29:33.487Z,9.98
2022-09-14T07:32:04.180Z,4.50
2022-09-14T07:34:33.189Z,7.60
2022-09-14T07:37:02.064Z,6.03
2022-09-14T07:39:30.933Z,5.65
2022-09-14T07:41:59.949Z,4.53
2022-09-14T07:44:29.076Z,4.85
2022-09-14T07:46:58.002Z,5.35
2022-09-14T07:49:28.552Z,3.85
2022-09-14T07:51:57.607Z,3.25
2022-09-14T07:54:26.868Z,5.78
2022-09-14T07:56:55.999Z,4.35
2022-09-14T07:59:35.680Z,4.68
2022-09-14T08:02:07.682Z,4.97
2022-09-14T08:04:39.433Z,4.03
2022-09-14T08:07:09.332Z,4.15
2022-09-14T08:09:39.749Z,3.95
2022-09-14T08:12:08.750Z,4.45
2022-09-14T08:14:37.645Z,4.38
2022-09-14T08:17:06.632Z,3.20
2022-09-14T08:19:35.731Z,3.20
2022-09-14T08:22:06.837Z,4.68
2022-09-14T08:24:36.070Z,5.55
2022-09-14T08:27:05.856Z,6.63
2022-09-14T08:29:35.031Z,5.85
2022-09-14T08:32:04.602Z,8.27
2022-09-14T08:34:34.402Z,4.75
2022-09-14T08:37:03.468Z,4.45
2022-09-14T08:39:33.986Z,4.65
2022-09-14T08:42:06.145Z,4.22
2022-09-14T08:44:42.247Z,5.22
2022-09-14T08:47:14.869Z,4.40
2022-09-14T08:49:49.036Z,5.82
2022-09-14T08:52:25.994Z,3.77
2022-09-14T08:54:59.181Z,7.65
2022-09-14T08:57:34.579Z,4.85
2022-09-14T09:00:10.889Z,5.15
2022-09-14T09:02:59.275Z,5.40
2022-09-14T09:05:37.751Z,6.43
2022-09-14T09:08:19.382Z,5.05
2022-09-14T09:10:53.600Z,5.50
2022-09-14T09:13:27.980Z,6.60
2022-09-14T09:16:01.432Z,4.82
2022-09-14T09:18:37.389Z,5.57
2022-09-14T09:21:11.148Z,5.43
2022-09-14T09:23:41.336Z,6.70
2022-09-14T09:26:18.158Z,4.85
2022-09-14T09:28:50.753Z,5.90
2022-09-14T09:31:27.095Z,5.65
2022-09-14T09:34:17.268Z,5.63
2022-09-14T09:39:20.592Z,4.57
2022-09-14T09:41:56.520Z,5.35
2022-09-14T09:44:25.632Z,6.28
2022-09-14T09:46:57.291Z,6.95
2022-09-14T09:49:28.059Z,4.72
2022-09-14T09:51:57.744Z,5.13
2022-09-14T09:54:30.646Z,7.63
2022-09-14T09:57:03.489Z,5.00
2022-09-14T09:59:36.499Z,5.93
2022-09-14T10:02:28.527Z,5.85
2022-09-14T10:05:03.353Z,5.80
2022-09-14T10:07:36.030Z,7.38
2022-09-14T10:10:07.987Z,5.65
2022-09-14T10:12:40.580Z,5.78
2022-09-14T10:15:17.551Z,7.00
2022-09-14T10:17:58.116Z,7.22
2022-09-14T10:20:27.713Z,7.55
2022-09-14T10:22:56.792Z,5.35
2022-09-14T10:25:28.119Z,7.40
2022-09-14T10:28:02.117Z,6.63
2022-09-14T10:30:38.540Z,5.88
2022-09-14T10:33:12.110Z,6.78
2022-09-14T10:35:54.788Z,6.35
2022-09-14T10:38:36.441Z,5.60
2022-09-14T10:41:15.260Z,4.55
2022-09-14T10:44:09.553Z,4.82
2022-09-14T10:46:47.379Z,5.28
2022-09-14T10:49:29.599Z,5.55
2022-09-14T10:52:06.800Z,4.05
2022-09-14T10:54:48.272Z,4.20
2022-09-14T10:57:31.033Z,3.88
2022-09-14T11:00:08.281Z,5.53
2022-09-14T11:03:06.051Z,5.30
2022-09-14T11:05:39.284Z,5.18
2022-09-14T11:08:17.125Z,6.60
2022-09-14T11:11:00.964Z,4.90
2022-09-14T11:13:44.131Z,4.95
2022-09-14T11:16:27.516Z,4.75
2022-09-14T11:19:08.117Z,5.63
2022-09-14T11:21:45.273Z,5.68
2022-09-14T11:24:21.488Z,6.20
2022-09-14T11:27:00.670Z,6.70
2022-09-14T11:29:34.348Z,7.35
2022-09-14T11:32:20.937Z,6.60
2022-09-14T11:34:58.607Z,6.22
2022-09-14T11:37:36.965Z,6.43
2022-09-14T11:40:16.821Z,6.78
2022-09-14T11:42:53.857Z,6.38
2022-09-14T11:45:27.855Z,6.78
2022-09-14T11:48:40.883Z,7.78
2022-09-14T11:51:05.517Z,8.52
2022-09-14T11:53:35.427Z,6.57
2022-09-14T11:56:05.445Z,7.07
2022-09-14T11:58:34.618Z,8.50
2022-09-14T12:01:25.345Z,6.43
2022-09-14T12:04:08.075Z,6.75
2022-09-14T12:06:54.105Z,9.32
2022-09-14T12:09:54.881Z,7.57
2022-09-14T12:12:35.444Z,7.43
2022-09-14T12:15:21.632Z,6.57
2022-09-14T12:17:53.615Z,8.43
2022-09-14T12:20:39.182Z,6.82
2022-09-14T12:23:16.873Z,5.53
2022-09-14T12:26:08.503Z,7.00
2022-09-14T12:28:48.245Z,6.38
2022-09-14T12:31:36.605Z,6.70
2022-09-14T12:34:21.246Z,6.70
2022-09-14T12:37:31.897Z,12.77
2022-09-14T12:40:36.527Z,8.63
2022-09-14T12:43:50.917Z,13.45
2022-09-14T12:46:47.436Z,11.38
2022-09-14T12:49:37.060Z,6.55
2022-09-14T12:52:24.657Z,32.00
2022-09-14T12:55:08.551Z,7.93
2022-09-14T12:57:46.515Z,13.02
2022-09-14T13:00:18.512Z,12.13
2022-09-14T13:03:10.972Z,8.95
2022-09-14T13:05:45.098Z,12.60
2022-09-14T13:08:18.688Z,15.57
2022-09-14T13:10:50.683Z,8.00
2022-09-14T13:13:23.993Z,10.73
2022-09-14T13:15:56.046Z,9.07
2022-09-14T13:18:30.314Z,16.33
2022-09-14T13:21:01.065Z,7.73
2022-09-14T13:23:33.781Z,12.80
2022-09-14T13:26:11.311Z,9.88
2022-09-14T13:28:44.696Z,8.57
2022-09-14T13:31:15.881Z,9.90
2022-09-14T13:33:52.224Z,8.93
2022-09-14T13:36:24.057Z,8.18
2022-09-14T13:38:53.371Z,10.02
2022-09-14T13:41:24.132Z,10.80
2022-09-14T13:43:56.722Z,8.05
2022-09-14T13:46:28.453Z,7.75
2022-09-14T13:48:57.967Z,6.85
2022-09-14T13:51:29.958Z,8.82
2022-09-14T13:54:00.484Z,6.30
2022-09-14T13:56:32.505Z,16.70
2022-09-14T13:59:21.694Z,9.15
2022-09-14T14:01:57.850Z,9.25
2022-09-14T14:04:36.201Z,10.48
2022-09-14T14:07:16.761Z,7.93
2022-09-14T14:09:51.016Z,7.25
2022-09-14T14:12:25.571Z,8.05
2022-09-14T14:14:57.946Z,6.80
2022-09-14T14:17:38.049Z,9.02
2022-09-14T14:20:30.158Z,7.28
2022-09-14T14:23:01.010Z,8.65
2022-09-14T14:25:33.628Z,8.73
2022-09-14T14:28:04.393Z,8.10
2022-09-14T14:30:37.785Z,6.78
2022-09-14T14:33:08.599Z,6.82
2022-09-14T14:35:37.568Z,6.80
2022-09-14T14:38:06.867Z,8.60
2022-09-14T14:40:36.169Z,9.45
2022-09-14T14:43:07.303Z,8.35
2022-09-14T14:45:38.113Z,10.65
2022-09-14T14:48:12.759Z,9.10
2022-09-14T14:50:42.962Z,7.75
2022-09-14T14:53:12.103Z,6.68
2022-09-14T14:55:41.100Z,9.13
2022-09-14T14:58:17.364Z,9.07
2022-09-14T15:00:49.289Z,7.75
2022-09-14T15:03:19.147Z,6.68
2022-09-14T15:05:50.328Z,7.60
2022-09-14T15:08:21.123Z,11.55
2022-09-14T15:10:50.338Z,9.60
2022-09-14T15:13:19.310Z,13.85
2022-09-14T15:15:50.670Z,13.10
2022-09-14T15:18:19.592Z,8.32
2022-09-14T15:20:48.975Z,7.60
2022-09-14T15:23:18.145Z,10.70
2022-09-14T15:25:47.347Z,11.82
2022-09-14T15:28:16.497Z,6.85
2022-09-14T15:30:45.921Z,7.75
2022-09-14T15:33:16.502Z,8.98
2022-09-14T15:35:45.513Z,9.70
2022-09-14T15:38:14.399Z,11.73
2022-09-14T15:40:43.509Z,10.25
2022-09-14T15:43:14.548Z,10.85
2022-09-14T15:45:43.561Z,8.50
2022-09-14T15:48:16.216Z,11.60
2022-09-14T15:50:46.989Z,11.15
2022-09-14T15:53:17.617Z,8.68
2022-09-14T15:55:47.285Z,15.00
2022-09-14T15:58:16.296Z,9.13
2022-09-14T16:00:45.760Z,12.10
2022-09-14T16:03:16.354Z,9.15
2022-09-14T16:05:45.406Z,9.85
2022-09-14T16:08:14.703Z,15.73
2022-09-14T16:10:43.647Z,13.30
2022-09-14T16:13:13.406Z,12.48
2022-09-14T16:15:42.498Z,13.60
2022-09-14T16:18:11.912Z,10.75
2022-09-14T16:20:42.243Z,14.77
2022-09-14T16:23:11.391Z,11.40
2022-09-14T16:25:40.917Z,13.98
2022-09-14T16:28:09.883Z,11.15
2022-09-14T16:30:38.850Z,13.05
2022-09-14T16:33:07.935Z,12.65
2022-09-14T16:35:37.209Z,11.35
2022-09-14T16:38:07.705Z,12.95
2022-09-14T16:40:38.991Z,11.65
2022-09-14T16:43:11.503Z,11.30
2022-09-14T16:45:41.097Z,12.07
2022-09-14T16:48:10.252Z,12.05
2022-09-14T16:50:39.148Z,15.35
2022-09-14T16:53:09.573Z,14.88
2022-09-14T16:55:38.567Z,11.32
2022-09-14T16:58:07.522Z,11.70
2022-09-14T17:00:36.648Z,14.40
2022-09-14T17:03:05.969Z,12.80
2022-09-14T17:05:34.895Z,13.38
2022-09-14T17:08:04.024Z,11.13
2022-09-14T17:10:36.686Z,12.25
2022-09-14T17:13:05.749Z,14.73
2022-09-14T17:15:34.720Z,16.15
2022-09-14T17:18:03.625Z,12.73
2022-09-14T17:20:32.581Z,11.43
2022-09-14T17:23:01.516Z,13.25
2022-09-14T17:25:30.482Z,13.80
2022-09-14T17:28:00.850Z,13.25
2022-09-14T17:30:29.883Z,16.23
2022-09-14T17:32:58.999Z,14.80
2022-09-14T17:35:28.022Z,14.02
2022-09-14T17:37:58.917Z,25.30
2022-09-14T17:40:30.585Z,16.70
2022-09-14T17:43:01.107Z,14.07
2022-09-14T17:45:30.164Z,12.90
2022-09-14T17:47:59.434Z,14.43
2022-09-14T17:50:28.782Z,15.27
2022-09-14T17:52:57.873Z,17.63
2022-09-14T17:55:27.626Z,16.77
2022-09-14T17:57:56.563Z,17.50
2022-09-14T18:00:27.054Z,15.88
2022-09-14T18:02:56.491Z,15.98
2022-09-14T18:05:55.768Z,18.77
2022-09-14T18:08:24.793Z,17.75
2022-09-14T18:10:54.040Z,22.58
2022-09-14T18:13:23.453Z,17.90
2022-09-14T18:15:58.592Z,22.33
2022-09-14T18:20:56.257Z,21.35
2022-09-14T18:23:25.650Z,20.58
2022-09-14T18:25:55.132Z,18.73
2022-09-14T18:28:25.086Z,19.42
2022-09-14T18:31:05.417Z,19.13
2022-09-14T18:33:35.732Z,18.52
2022-09-14T18:36:06.286Z,18.52
2022-09-14T18:38:35.612Z,17.45
2022-09-14T18:41:05.813Z,16.40
2022-09-14T18:43:35.555Z,16.98
2022-09-14T18:46:09.024Z,17.38
2022-09-14T18:48:38.956Z,19.27
2022-09-14T18:51:08.851Z,18.67
2022-09-14T18:53:38.140Z,16.45
2022-09-14T18:56:09.040Z,16.48
2022-09-14T18:58:40.293Z,21.00
2022-09-14T19:01:11.995Z,20.05
2022-09-14T19:03:42.953Z,22.35
2022-09-14T19:06:14.039Z,21.75
2022-09-14T19:08:44.378Z,21.55
2022-09-14T19:11:15.131Z,23.98
2022-09-14T19:13:44.568Z,17.80
2022-09-14T19:16:17.092Z,18.83
2022-09-14T19:21:06.246Z,18.92
2022-09-14T19:26:08.422Z,15.82
2022-09-14T19:28:38.983Z,18.15
2022-09-14T19:31:09.132Z,19.33
2022-09-14T19:33:45.033Z,16.90
2022-09-14T19:36:19.949Z,18.95
2022-09-14T19:38:50.179Z,23.25
2022-09-14T19:41:20.434Z,22.98
2022-09-14T19:43:50.073Z,18.75
2022-09-14T19:46:23.483Z,18.70
2022-09-14T19:48:53.250Z,16.02
2022-09-14T19:51:26.481Z,22.33
2022-09-14T19:53:57.407Z,20.38
2022-09-14T19:56:28.833Z,18.02
2022-09-14T19:58:59.959Z,29.00
2022-09-14T20:01:31.807Z,21.00
2022-09-14T20:04:02.641Z,19.00
2022-09-14T20:06:58.084Z,21.65
2022-09-14T20:09:27.257Z,19.60
2022-09-14T20:11:56.283Z,24.60
2022-09-14T20:14:26.637Z,23.60
2022-09-14T20:16:59.383Z,22.85
2022-09-14T20:19:30.420Z,27.25
2022-09-14T20:22:02.485Z,26.65
2022-09-14T20:24:50.543Z,23.17
2022-09-14T20:27:19.716Z,25.13
2022-09-14T20:29:50.048Z,26.95
2022-09-14T20:32:20.346Z,24.50
2022-09-14T20:34:49.668Z,24.25
2022-09-14T20:37:20.482Z,27.70
2022-09-14T20:39:49.477Z,24.45
2022-09-14T20:42:18.564Z,23.55
2022-09-14T20:44:47.646Z,24.67
2022-09-14T20:47:17.143Z,24.58
2022-09-14T20:49:46.422Z,25.75
2022-09-14T20:52:15.454Z,22.65
2022-09-14T20:54:46.869Z,25.02
2022-09-14T20:57:15.838Z,23.15
2022-09-14T20:59:44.778Z,23.42
2022-09-14T21:02:13.911Z,22.02
2022-09-14T21:04:42.995Z,20.10
2022-09-14T21:07:12.476Z,22.05
2022-09-14T21:09:41.538Z,20.67
2022-09-14T21:12:14.203Z,26.58
2022-09-14T21:14:45.314Z,19.95
2022-09-14T21:17:14.399Z,23.23
2022-09-14T21:19:43.307Z,21.38
2022-09-14T21:22:12.335Z,26.70
2022-09-14T21:24:41.402Z,22.48
2022-09-14T21:27:11.681Z,25.35
2022-09-14T21:29:40.625Z,22.08
2022-09-14T21:32:09.516Z,24.25
2022-09-14T21:34:38.405Z,22.85
2022-09-14T21:37:07.592Z,21.10
2022-09-14T21:39:38.104Z,25.25
2022-09-14T21:42:07.492Z,24.83
2022-09-14T21:44:38.596Z,24.42
2022-09-14T21:47:07.827Z,24.02
2022-09-14T21:49:36.802Z,26.40
2022-09-14T21:52:05.994Z,22.45
2022-09-14T21:54:35.120Z,22.40
2022-09-14T21:57:04.060Z,24.33
2022-09-14T21:59:33.091Z,25.13
2022-09-14T22:02:03.317Z,26.02
2022-09-14T22:04:32.387Z,26.13
2022-09-14T22:07:01.528Z,27.58
2022-09-14T22:09:30.707Z,23.60
2022-09-14T22:11:59.944Z,18.27
2022-09-14T22:14:30.495Z,25.42
2022-09-14T22:16:59.354Z,23.85
2022-09-14T22:19:31.569Z,33.78
2022-09-14T22:22:00.972Z,28.98
2022-09-14T22:24:37.083Z,27.50
2022-09-14T22:27:07.610Z,28.83
2022-09-14T22:29:37.441Z,31.67
2022-09-14T22:32:11.948Z,22.88
2022-09-14T22:34:44.667Z,25.10
2022-09-14T22:37:16.555Z,21.23
2022-09-14T22:39:45.728Z,28.77
2022-09-14T22:42:14.699Z,28.25
2022-09-14T22:44:43.656Z,23.35
2022-09-14T22:47:12.726Z,22.10
2022-09-14T22:49:43.047Z,24.00
2022-09-14T22:52:12.041Z,29.83
2022-09-14T22:54:40.909Z,31.88
2022-09-14T22:57:09.790Z,24.77
2022-09-14T22:59:39.002Z,21.98
2022-09-14T23:02:08.202Z,27.75
2022-09-14T23:04:37.362Z,23.48
2022-09-14T23:07:08.642Z,24.88
2022-09-14T23:09:39.390Z,26.13
2022-09-14T23:12:08.378Z,25.85
2022-09-14T23:14:37.311Z,22.83
2022-09-14T23:17:06.293Z,20.73
2022-09-14T23:19:35.236Z,27.30
2022-09-14T23:22:04.890Z,20.92
2022-09-14T23:24:35.415Z,19.42
2022-09-14T23:27:04.567Z,21.52
2022-09-14T23:29:33.482Z,19.15
2022-09-14T23:32:02.509Z,24.60
2022-09-14T23:34:31.599Z,27.95
2022-09-14T23:37:01.726Z,24.55
2022-09-14T23:39:30.716Z,23.85
2022-09-14T23:42:01.044Z,25.70
2022-09-14T23:44:29.992Z,20.30
2022-09-14T23:46:58.946Z,25.70
2022-09-14T23:49:27.992Z,19.83
2022-09-14T23:51:56.874Z,22.45
2022-09-14T23:54:25.829Z,24.10
2022-09-14T23:56:54.863Z,23.67
2022-09-14T23:59:25.403Z,20.35
